Chapman, Maine
Current Conditions -  °F | °C
As of 8:55 PM on Monday 24 Nov 2014 (Local Time) from KPQI Reporting Station
Overcast Overcast  
Wind Chill: 55°   Ceiling: 1300
Heat Index: 55°   Visibility: 10mi
Dew Point: 52°   Wind: 10mph
Humidity: 88%   Direction: 180°S
Pressure: 29.41"   Gusts: NA
Location:  46.5489°N, 68.172°W
Report Text: KPQI 250155Z AUTO 18009KT 10SM BKN013 OVC019 13/11 A2941 RMK AO1
Loading
Personal Weather Stations






























Interactive Weather Map New forecast layout! Learn more

10-Day Weather Forecast

Advertisements
Track Severe Weather on mobile